sensor_id;sensor_type;location;lat;lon;timestamp;pressure;altitude;pressure_sealevel;temperature;humidity
51759;BME280;66684;47.568;18.734;2023-01-29T00:01:42;100191.81;;;-1.48;100.00
51759;BME280;66684;47.568;18.734;2023-01-29T00:04:08;100192.69;;;-1.39;100.00
51759;BME280;66684;47.568;18.734;2023-01-29T00:06:34;100190.63;;;-1.52;100.00
51759;BME280;66684;47.568;18.734;2023-01-29T00:09:00;100195.97;;;-1.40;100.00
51759;BME280;66684;47.568;18.734;2023-01-29T00:11:26;100197.47;;;-1.25;100.00
51759;BME280;66684;47.568;18.734;2023-01-29T00:13:52;100196.25;;;-1.28;100.00
51759;BME280;66684;47.568;18.734;2023-01-29T00:16:19;100189.09;;;-1.32;100.00
51759;BME280;66684;47.568;18.734;2023-01-29T00:18:45;100199.56;;;-1.55;100.00
51759;BME280;66684;47.568;18.734;2023-01-29T00:21:13;100198.81;;;-1.46;100.00
51759;BME280;66684;47.568;18.734;2023-01-29T00:23:40;100202.41;;;-1.70;100.00
51759;BME280;66684;47.568;18.734;2023-01-29T00:26:07;100204.03;;;-1.79;100.00
51759;BME280;66684;47.568;18.734;2023-01-29T00:28:33;100203.75;;;-1.73;100.00
51759;BME280;66684;47.568;18.734;2023-01-29T00:31:25;100206.53;;;-1.96;100.00
51759;BME280;66684;47.568;18.734;2023-01-29T00:33:51;100214.44;;;-1.93;100.00
51759;BME280;66684;47.568;18.734;2023-01-29T00:36:19;100209.34;;;-2.10;100.00
51759;BME280;66684;47.568;18.734;2023-01-29T00:38:45;100209.97;;;-1.96;100.00
51759;BME280;66684;47.568;18.734;2023-01-29T00:41:20;100217.28;;;-1.90;100.00
51759;BME280;66684;47.568;18.734;2023-01-29T00:44:05;100217.72;;;-1.77;100.00
51759;BME280;66684;47.568;18.734;2023-01-29T00:46:50;100213.87;;;-1.82;100.00
51759;BME280;66684;47.568;18.734;2023-01-29T00:49:16;100220.44;;;-1.75;100.00
51759;BME280;66684;47.568;18.734;2023-01-29T00:51:42;100215.34;;;-1.84;100.00
51759;BME280;66684;47.568;18.734;2023-01-29T00:54:07;100208.50;;;-1.85;100.00
51759;BME280;66684;47.568;18.734;2023-01-29T00:56:35;100209.69;;;-1.64;100.00
51759;BME280;66684;47.568;18.734;2023-01-29T00:59:02;100208.78;;;-1.65;100.00
51759;BME280;66684;47.568;18.734;2023-01-29T01:01:28;100212.97;;;-1.74;100.00
51759;BME280;66684;47.568;18.734;2023-01-29T01:04:13;100216.69;;;-1.70;100.00
51759;BME280;66684;47.568;18.734;2023-01-29T01:06:40;100216.25;;;-1.75;100.00
51759;BME280;66684;47.568;18.734;2023-01-29T01:09:08;100219.38;;;-1.95;100.00
51759;BME280;66684;47.568;18.734;2023-01-29T01:11:53;100224.34;;;-2.21;100.00
51759;BME280;66684;47.568;18.734;2023-01-29T01:14:19;100212.84;;;-2.43;100.00
51759;BME280;66684;47.568;18.734;2023-01-29T01:16:46;100219.38;;;-2.45;100.00
51759;BME280;66684;47.568;18.734;2023-01-29T01:19:14;100216.72;;;-2.38;100.00
51759;BME280;66684;47.568;18.734;2023-01-29T01:21:40;100217.56;;;-2.46;100.00
51759;BME280;66684;47.568;18.734;2023-01-29T01:24:13;100219.13;;;-2.31;100.00
51759;BME280;66684;47.568;18.734;2023-01-29T01:26:39;100223.94;;;-2.17;100.00
51759;BME280;66684;47.568;18.734;2023-01-29T01:29:05;100222.31;;;-2.07;100.00
51759;BME280;66684;47.568;18.734;2023-01-29T01:31:31;100224.34;;;-2.21;100.00
51759;BME280;66684;47.568;18.734;2023-01-29T01:33:57;100220.50;;;-2.59;100.00
51759;BME280;66684;47.568;18.734;2023-01-29T01:36:23;100224.38;;;-2.62;100.00
51759;BME280;66684;47.568;18.734;2023-01-29T01:38:49;100224.16;;;-2.73;100.00
51759;BME280;66684;47.568;18.734;2023-01-29T01:41:18;100221.62;;;-2.73;100.00
51759;BME280;66684;47.568;18.734;2023-01-29T01:46:23;100223.22;;;-2.57;100.00
51759;BME280;66684;47.568;18.734;2023-01-29T01:48:53;100218.75;;;-2.51;100.00
51759;BME280;66684;47.568;18.734;2023-01-29T01:51:23;100218.19;;;-2.40;100.00
51759;BME280;66684;47.568;18.734;2023-01-29T01:53:55;100219.94;;;-2.56;100.00
51759;BME280;66684;47.568;18.734;2023-01-29T01:56:27;100231.72;;;-2.48;100.00
51759;BME280;66684;47.568;18.734;2023-01-29T01:59:08;100223.97;;;-2.50;100.00
51759;BME280;66684;47.568;18.734;2023-01-29T02:01:36;100228.97;;;-2.25;100.00
51759;BME280;66684;47.568;18.734;2023-01-29T02:04:17;100227.50;;;-2.14;100.00
51759;BME280;66684;47.568;18.734;2023-01-29T02:07:06;100230.06;;;-1.97;100.00
51759;BME280;66684;47.568;18.734;2023-01-29T02:09:52;100234.72;;;-1.93;100.00
51759;BME280;66684;47.568;18.734;2023-01-29T02:12:20;100235.88;;;-1.90;100.00
51759;BME280;66684;47.568;18.734;2023-01-29T02:14:46;100238.75;;;-1.78;100.00
51759;BME280;66684;47.568;18.734;2023-01-29T02:17:15;100240.69;;;-1.67;100.00
51759;BME280;66684;47.568;18.734;2023-01-29T02:31:03;100240.56;;;-1.42;100.00
51759;BME280;66684;47.568;18.734;2023-01-29T02:35:42;100239.53;;;-1.44;100.00
51759;BME280;66684;47.568;18.734;2023-01-29T02:40:52;100247.84;;;-1.45;100.00
51759;BME280;66684;47.568;18.734;2023-01-29T02:48:26;100246.66;;;-1.40;100.00
51759;BME280;66684;47.568;18.734;2023-01-29T02:51:01;100254.72;;;-1.36;100.00
51759;BME280;66684;47.568;18.734;2023-01-29T02:53:40;100264.56;;;-1.39;100.00
51759;BME280;66684;47.568;18.734;2023-01-29T02:56:12;100255.34;;;-1.38;100.00
51759;BME280;66684;47.568;18.734;2023-01-29T02:59:08;100260.41;;;-1.38;100.00
51759;BME280;66684;47.568;18.734;2023-01-29T03:01:41;100263.97;;;-1.36;100.00
51759;BME280;66684;47.568;18.734;2023-01-29T03:04:13;100251.75;;;-1.40;100.00
51759;BME280;66684;47.568;18.734;2023-01-29T03:06:44;100261.31;;;-1.38;100.00
51759;BME280;66684;47.568;18.734;2023-01-29T03:09:18;100268.47;;;-1.25;100.00
51759;BME280;66684;47.568;18.734;2023-01-29T03:11:51;100265.16;;;-1.32;100.00
51759;BME280;66684;47.568;18.734;2023-01-29T03:14:38;100270.53;;;-1.21;100.00
51759;BME280;66684;47.568;18.734;2023-01-29T03:17:26;100269.31;;;-1.33;100.00
51759;BME280;66684;47.568;18.734;2023-01-29T03:19:55;100266.94;;;-1.40;100.00
51759;BME280;66684;47.568;18.734;2023-01-29T03:22:21;100269.47;;;-1.40;100.00
51759;BME280;66684;47.568;18.734;2023-01-29T03:24:56;100264.09;;;-1.26;100.00
51759;BME280;66684;47.568;18.734;2023-01-29T03:30:57;100264.88;;;-1.18;100.00
51759;BME280;66684;47.568;18.734;2023-01-29T03:33:48;100261.88;;;-1.23;100.00
51759;BME280;66684;47.568;18.734;2023-01-29T03:36:31;100271.13;;;-1.15;100.00
51759;BME280;66684;47.568;18.734;2023-01-29T03:39:07;100277.09;;;-1.05;100.00
51759;BME280;66684;47.568;18.734;2023-01-29T03:44:17;100278.59;;;-1.16;100.00
51759;BME280;66684;47.568;18.734;2023-01-29T03:46:58;100285.72;;;-1.21;100.00
51759;BME280;66684;47.568;18.734;2023-01-29T03:52:48;100286.66;;;-1.12;100.00
51759;BME280;66684;47.568;18.734;2023-01-29T03:55:22;100288.44;;;-1.11;100.00
51759;BME280;66684;47.568;18.734;2023-01-29T03:57:57;100286.66;;;-1.12;100.00
51759;BME280;66684;47.568;18.734;2023-01-29T04:00:37;100287.53;;;-1.11;100.00
51759;BME280;66684;47.568;18.734;2023-01-29T04:03:07;100280.06;;;-1.10;100.00
51759;BME280;66684;47.568;18.734;2023-01-29T04:05:42;100280.53;;;-1.05;100.00
51759;BME280;66684;47.568;18.734;2023-01-29T04:08:14;100277.37;;;-1.11;100.00
51759;BME280;66684;47.568;18.734;2023-01-29T04:10:43;100278.28;;;-1.11;100.00
51759;BME280;66684;47.568;18.734;2023-01-29T04:13:12;100281.13;;;-1.16;100.00
51759;BME280;66684;47.568;18.734;2023-01-29T04:15:45;100280.97;;;-1.18;100.00
51759;BME280;66684;47.568;18.734;2023-01-29T04:18:12;100282.75;;;-1.17;100.00
51759;BME280;66684;47.568;18.734;2023-01-29T04:20:38;100278.59;;;-1.25;100.00
51759;BME280;66684;47.568;18.734;2023-01-29T04:23:06;100272.94;;;-1.31;100.00
51759;BME280;66684;47.568;18.734;2023-01-29T04:25:42;100271.16;;;-1.32;100.00
51759;BME280;66684;47.568;18.734;2023-01-29T04:28:24;100280.09;;;-1.18;100.00
51759;BME280;66684;47.568;18.734;2023-01-29T04:30:58;100271.56;;;-1.27;100.00
51759;BME280;66684;47.568;18.734;2023-01-29T04:36:11;100274.09;;;-1.27;100.00
51759;BME280;66684;47.568;18.734;2023-01-29T04:38:45;100287.53;;;-1.37;100.00
51759;BME280;66684;47.568;18.734;2023-01-29T04:42:28;100293.97;;;-1.32;100.00
51759;BME280;66684;47.568;18.734;2023-01-29T04:44:38;100284.53;;;-1.33;100.00
51759;BME280;66684;47.568;18.734;2023-01-29T04:52:28;100278.00;;;-1.31;100.00
51759;BME280;66684;47.568;18.734;2023-01-29T04:58:11;100278.88;;;-1.39;100.00
51759;BME280;66684;47.568;18.734;2023-01-29T05:00:42;100273.50;;;-1.33;100.00
51759;BME280;66684;47.568;18.734;2023-01-29T05:03:13;100273.78;;;-1.39;100.00
51759;BME280;66684;47.568;18.734;2023-01-29T05:05:43;100268.88;;;-1.29;100.00
51759;BME280;66684;47.568;18.734;2023-01-29T05:08:12;100272.94;;;-1.31;100.00
51759;BME280;66684;47.568;18.734;2023-01-29T05:10:39;100265.00;;;-1.34;100.00
51759;BME280;66684;47.568;18.734;2023-01-29T05:13:08;100267.25;;;-1.37;100.00
51759;BME280;66684;47.568;18.734;2023-01-29T05:15:38;100267.09;;;-1.30;100.00
51759;BME280;66684;47.568;18.734;2023-01-29T05:18:05;100263.06;;;-1.28;100.00
51759;BME280;66684;47.568;18.734;2023-01-29T05:20:36;100273.09;;;-1.38;100.00
51759;BME280;66684;47.568;18.734;2023-01-29T05:23:03;100272.94;;;-1.31;100.00
51759;BME280;66684;47.568;18.734;2023-01-29T05:25:31;100268.00;;;-1.38;100.00
51759;BME280;66684;47.568;18.734;2023-01-29T05:27:57;100269.19;;;-1.43;100.00
51759;BME280;66684;47.568;18.734;2023-01-29T05:30:37;100275.00;;;-1.44;100.00
51759;BME280;66684;47.568;18.734;2023-01-29T05:33:09;100256.22;;;-1.38;100.00
51759;BME280;66684;47.568;18.734;2023-01-29T05:35:36;100272.47;;;-1.36;100.00
51759;BME280;66684;47.568;18.734;2023-01-29T05:38:02;100271.72;;;-1.52;100.00
51759;BME280;66684;47.568;18.734;2023-01-29T05:40:28;100280.53;;;-1.48;100.00
51759;BME280;66684;47.568;18.734;2023-01-29T05:42:54;100276.81;;;-1.43;100.00
51759;BME280;66684;47.568;18.734;2023-01-29T05:45:20;100281.25;;;-1.41;100.00
51759;BME280;66684;47.568;18.734;2023-01-29T05:47:46;100287.53;;;-1.37;100.00
51759;BME280;66684;47.568;18.734;2023-01-29T05:50:13;100290.03;;;-1.46;100.00
51759;BME280;66684;47.568;18.734;2023-01-29T05:52:40;100287.53;;;-1.28;100.00
51759;BME280;66684;47.568;18.734;2023-01-29T05:55:07;100293.94;;;-1.15;100.00
51759;BME280;66684;47.568;18.734;2023-01-29T05:57:34;100299.75;;;-1.16;100.00
51759;BME280;66684;47.568;18.734;2023-01-29T05:59:59;100297.38;;;-1.05;100.00
51759;BME280;66684;47.568;18.734;2023-01-29T06:02:28;100308.41;;;-1.14;100.00
51759;BME280;66684;47.568;18.734;2023-01-29T06:04:55;100304.41;;;-0.94;100.00
51759;BME280;66684;47.568;18.734;2023-01-29T06:07:20;100301.25;;;-1.09;100.00
51759;BME280;66684;47.568;18.734;2023-01-29T06:09:46;100308.41;;;-0.96;100.00
51759;BME280;66684;47.568;18.734;2023-01-29T06:12:13;100314.97;;;-1.16;100.00
51759;BME280;66684;47.568;18.734;2023-01-29T06:14:38;100305.13;;;-1.30;100.00
51759;BME280;66684;47.568;18.734;2023-01-29T06:17:04;100305.44;;;-1.10;100.00
51759;BME280;66684;47.568;18.734;2023-01-29T06:19:30;100315.88;;;-1.24;100.00
51759;BME280;66684;47.568;18.734;2023-01-29T06:21:56;100320.34;;;-1.21;100.00
51759;BME280;66684;47.568;18.734;2023-01-29T06:24:22;100328.97;;;-1.28;100.00
51759;BME280;66684;47.568;18.734;2023-01-29T06:26:48;100332.25;;;-1.46;100.00
51759;BME280;66684;47.568;18.734;2023-01-29T06:29:14;100330.59;;;-1.54;100.00
51759;BME280;66684;47.568;18.734;2023-01-29T06:31:40;100333.00;;;-1.47;100.00
51759;BME280;66684;47.568;18.734;2023-01-29T06:34:06;100328.94;;;-1.54;100.00
51759;BME280;66684;47.568;18.734;2023-01-29T06:36:33;100348.63;;;-1.51;100.00
51759;BME280;66684;47.568;18.734;2023-01-29T06:38:58;100342.66;;;-1.60;100.00
51759;BME280;66684;47.568;18.734;2023-01-29T06:41:24;100339.38;;;-1.59;100.00
51759;BME280;66684;47.568;18.734;2023-01-29T06:43:50;100350.69;;;-1.65;100.00
51759;BME280;66684;47.568;18.734;2023-01-29T06:46:16;100343.69;;;-1.58;100.00
51759;BME280;66684;47.568;18.734;2023-01-29T06:48:42;100333.41;;;-1.69;100.00
51759;BME280;66684;47.568;18.734;2023-01-29T06:51:09;100349.78;;;-1.74;100.00
51759;BME280;66684;47.568;18.734;2023-01-29T06:53:36;100345.87;;;-1.79;100.00
51759;BME280;66684;47.568;18.734;2023-01-29T06:56:03;100352.19;;;-1.67;100.00
51759;BME280;66684;47.568;18.734;2023-01-29T06:58:29;100345.66;;;-1.56;100.00
51759;BME280;66684;47.568;18.734;2023-01-29T07:01:09;100348.94;;;-1.57;100.00
51759;BME280;66684;47.568;18.734;2023-01-29T07:03:35;100354.44;;;-1.52;100.00
51759;BME280;66684;47.568;18.734;2023-01-29T07:06:02;100354.56;;;-1.59;100.00
51759;BME280;66684;47.568;18.734;2023-01-29T07:08:28;100354.91;;;-1.56;100.00
51759;BME280;66684;47.568;18.734;2023-01-29T07:10:59;100349.50;;;-1.68;100.00
51759;BME280;66684;47.568;18.734;2023-01-29T07:13:25;100357.88;;;-1.52;100.00
51759;BME280;66684;47.568;18.734;2023-01-29T07:15:51;100359.09;;;-1.48;100.00
51759;BME280;66684;47.568;18.734;2023-01-29T07:18:17;100359.37;;;-1.45;100.00
51759;BME280;66684;47.568;18.734;2023-01-29T07:20:43;100347.09;;;-1.67;100.00
51759;BME280;66684;47.568;18.734;2023-01-29T07:23:11;100339.69;;;-1.56;100.00
51759;BME280;66684;47.568;18.734;2023-01-29T07:25:37;100342.66;;;-1.52;100.00
51759;BME280;66684;47.568;18.734;2023-01-29T07:28:03;100338.19;;;-1.54;100.00
51759;BME280;66684;47.568;18.734;2023-01-29T07:30:29;100335.03;;;-1.69;100.00
51759;BME280;66684;47.568;18.734;2023-01-29T07:33:02;100340.31;;;-1.50;100.00
51759;BME280;66684;47.568;18.734;2023-01-29T07:35:28;100340.88;;;-1.61;100.00
51759;BME280;66684;47.568;18.734;2023-01-29T07:37:54;100338.81;;;-1.48;100.00
51759;BME280;66684;47.568;18.734;2023-01-29T07:40:20;100334.91;;;-1.53;100.00
51759;BME280;66684;47.568;18.734;2023-01-29T07:42:46;100336.13;;;-1.50;100.00
51759;BME280;66684;47.568;18.734;2023-01-29T07:45:12;100338.19;;;-1.63;100.00
51759;BME280;66684;47.568;18.734;2023-01-29T07:47:38;100339.09;;;-1.45;100.00
51759;BME280;66684;47.568;18.734;2023-01-29T07:50:04;100333.75;;;-1.48;100.00
51759;BME280;66684;47.568;18.734;2023-01-29T07:52:32;100331.19;;;-1.48;100.00
51759;BME280;66684;47.568;18.734;2023-01-29T07:54:58;100326.13;;;-1.48;100.00
51759;BME280;66684;47.568;18.734;2023-01-29T07:57:24;100336.28;;;-1.48;100.00
51759;BME280;66684;47.568;18.734;2023-01-29T07:59:50;100345.50;;;-1.49;100.00
51759;BME280;66684;47.568;18.734;2023-01-29T08:02:16;100341.47;;;-1.47;100.00
51759;BME280;66684;47.568;18.734;2023-01-29T08:04:42;100355.94;;;-1.54;100.00
51759;BME280;66684;47.568;18.734;2023-01-29T08:07:08;100359.09;;;-1.48;100.00
51759;BME280;66684;47.568;18.734;2023-01-29T08:09:35;100359.63;;;-1.59;100.00
51759;BME280;66684;47.568;18.734;2023-01-29T08:12:01;100361.72;;;-1.64;100.00
51759;BME280;66684;47.568;18.734;2023-01-29T08:14:27;100363.53;;;-1.63;100.00
51759;BME280;66684;47.568;18.734;2023-01-29T08:16:53;100363.81;;;-1.69;100.00
51759;BME280;66684;47.568;18.734;2023-01-29T08:19:18;100361.12;;;-1.61;100.00
51759;BME280;66684;47.568;18.734;2023-01-29T08:21:44;100366.50;;;-1.58;100.00
51759;BME280;66684;47.568;18.734;2023-01-29T08:24:10;100372.44;;;-1.67;100.00
51759;BME280;66684;47.568;18.734;2023-01-29T08:26:36;100379.91;;;-1.59;100.00
51759;BME280;66684;47.568;18.734;2023-01-29T08:29:02;100373.47;;;-1.65;100.00
51759;BME280;66684;47.568;18.734;2023-01-29T08:31:28;100378.12;;;-1.60;100.00
51759;BME280;66684;47.568;18.734;2023-01-29T08:33:54;100376.19;;;-1.63;100.00
51759;BME280;66684;47.568;18.734;2023-01-29T08:36:20;100377.50;;;-1.67;100.00
51759;BME280;66684;47.568;18.734;2023-01-29T08:38:46;100388.31;;;-1.43;100.00
51759;BME280;66684;47.568;18.734;2023-01-29T08:41:12;100392.91;;;-1.56;100.00
51759;BME280;66684;47.568;18.734;2023-01-29T08:43:37;100395.91;;;-1.43;100.00
51759;BME280;66684;47.568;18.734;2023-01-29T08:46:05;100388.00;;;-1.46;100.00
51759;BME280;66684;47.568;18.734;2023-01-29T08:48:31;100393.75;;;-1.65;100.00
51759;BME280;66684;47.568;18.734;2023-01-29T08:50:59;100404.34;;;-1.60;100.00
51759;BME280;66684;47.568;18.734;2023-01-29T08:53:25;100405.25;;;-1.59;100.00
51759;BME280;66684;47.568;18.734;2023-01-29T08:55:53;100398.69;;;-1.66;100.00
51759;BME280;66684;47.568;18.734;2023-01-29T08:58:19;100406.47;;;-1.47;100.00
51759;BME280;66684;47.568;18.734;2023-01-29T09:00:45;100410.31;;;-1.59;100.00
51759;BME280;66684;47.568;18.734;2023-01-29T09:03:11;100407.66;;;-1.52;100.00
51759;BME280;66684;47.568;18.734;2023-01-29T09:05:38;100410.03;;;-1.54;100.00
51759;BME280;66684;47.568;18.734;2023-01-29T09:08:05;100413.03;;;-1.49;100.00
51759;BME280;66684;47.568;18.734;2023-01-29T09:10:32;100416.56;;;-1.65;100.00
51759;BME280;66684;47.568;18.734;2023-01-29T09:12:58;100416.13;;;-1.60;100.00
51759;BME280;66684;47.568;18.734;2023-01-29T09:15:24;100419.84;;;-1.66;100.00
51759;BME280;66684;47.568;18.734;2023-01-29T09:17:50;100421.72;;;-1.80;100.00
51759;BME280;66684;47.568;18.734;2023-01-29T09:20:17;100416.59;;;-1.56;100.00
51759;BME280;66684;47.568;18.734;2023-01-29T09:22:43;100414.22;;;-1.54;100.00
51759;BME280;66684;47.568;18.734;2023-01-29T09:25:09;100404.06;;;-1.63;100.00
51759;BME280;66684;47.568;18.734;2023-01-29T09:27:35;100418.66;;;-1.60;100.00
51759;BME280;66684;47.568;18.734;2023-01-29T09:30:02;100418.06;;;-1.67;100.00
51759;BME280;66684;47.568;18.734;2023-01-29T09:32:28;100424.13;;;-1.73;100.00
51759;BME280;66684;47.568;18.734;2023-01-29T09:34:57;100429.87;;;-1.83;100.00
51759;BME280;66684;47.568;18.734;2023-01-29T09:37:23;100427.56;;;-1.73;100.00
51759;BME280;66684;47.568;18.734;2023-01-29T09:39:49;100430.91;;;-1.56;100.00
51759;BME280;66684;47.568;18.734;2023-01-29T09:47:31;100432.00;;;-1.79;100.00
51759;BME280;66684;47.568;18.734;2023-01-29T09:50:01;100430.50;;;-1.77;100.00
51759;BME280;66684;47.568;18.734;2023-01-29T09:52:32;100428.47;;;-1.64;100.00
51759;BME280;66684;47.568;18.734;2023-01-29T10:13:30;100435.62;;;-1.68;100.00
51759;BME280;66684;47.568;18.734;2023-01-29T10:18:36;100438.56;;;-1.81;100.00
51759;BME280;66684;47.568;18.734;2023-01-29T10:21:23;100437.56;;;-1.66;100.00
51759;BME280;66684;47.568;18.734;2023-01-29T10:26:28;100421.31;;;-1.68;100.00
51759;BME280;66684;47.568;18.734;2023-01-29T10:28:56;100423.59;;;-1.53;100.00
51759;BME280;66684;47.568;18.734;2023-01-29T10:31:29;100433.87;;;-1.52;100.00
51759;BME280;66684;47.568;18.734;2023-01-29T10:34:08;100429.72;;;-1.51;100.00
51759;BME280;66684;47.568;18.734;2023-01-29T10:36:45;100429.72;;;-1.51;100.00
51759;BME280;66684;47.568;18.734;2023-01-29T10:39:22;100427.97;;;-1.44;100.00
51759;BME280;66684;47.568;18.734;2023-01-29T10:47:31;100419.47;;;-1.44;100.00
51759;BME280;66684;47.568;18.734;2023-01-29T11:00:39;100396.44;;;-1.13;96.96
51759;BME280;66684;47.568;18.734;2023-01-29T11:03:34;100392.81;;;-1.15;96.80
51759;BME280;66684;47.568;18.734;2023-01-29T11:06:03;100405.22;;;-1.18;95.93
51759;BME280;66684;47.568;18.734;2023-01-29T11:14:25;100389.78;;;-1.45;97.09
51759;BME280;66684;47.568;18.734;2023-01-29T11:16:54;100384.06;;;-1.69;96.77
51759;BME280;66684;47.568;18.734;2023-01-29T11:19:38;100372.47;;;-1.58;96.82
51759;BME280;66684;47.568;18.734;2023-01-29T11:22:15;100369.50;;;-1.45;96.42
51759;BME280;66684;47.568;18.734;2023-01-29T11:24:42;100355.50;;;-1.42;96.24
51759;BME280;66684;47.568;18.734;2023-01-29T11:27:22;100358.94;;;-1.41;97.81
51759;BME280;66684;47.568;18.734;2023-01-29T11:29:48;100360.31;;;-1.19;97.15
51759;BME280;66684;47.568;18.734;2023-01-29T11:37:37;100347.16;;;-1.49;96.22
51759;BME280;66684;47.568;18.734;2023-01-29T11:42:47;100340.62;;;-1.30;94.60
51759;BME280;66684;47.568;18.734;2023-01-29T11:45:31;100338.06;;;-1.47;95.56
51759;BME280;66684;47.568;18.734;2023-01-29T11:47:59;100326.28;;;-1.55;95.07
51759;BME280;66684;47.568;18.734;2023-01-29T11:50:28;100323.75;;;-1.55;94.33
51759;BME280;66684;47.568;18.734;2023-01-29T11:53:00;100326.50;;;-1.78;95.39
51759;BME280;66684;47.568;18.734;2023-01-29T11:55:31;100336.63;;;-1.78;94.65
51759;BME280;66684;47.568;18.734;2023-01-29T11:58:11;100312.19;;;-1.78;95.41
51759;BME280;66684;47.568;18.734;2023-01-29T12:00:45;100310.19;;;-1.47;93.11
51759;BME280;66684;47.568;18.734;2023-01-29T12:03:19;100321.06;;;-1.48;91.83
51759;BME280;66684;47.568;18.734;2023-01-29T12:05:55;100293.94;;;-1.41;90.25
51759;BME280;66684;47.568;18.734;2023-01-29T12:08:22;100297.66;;;-1.20;91.96
51759;BME280;66684;47.568;18.734;2023-01-29T12:10:49;100300.66;;;-1.06;89.85
51759;BME280;66684;47.568;18.734;2023-01-29T12:13:34;100309.59;;;-1.01;89.46
51759;BME280;66684;47.568;18.734;2023-01-29T12:16:16;100304.53;;;-1.01;90.56
51759;BME280;66684;47.568;18.734;2023-01-29T12:18:49;100303.03;;;-1.17;92.08
51759;BME280;66684;47.568;18.734;2023-01-29T12:21:22;100305.16;;;-1.13;89.55
51759;BME280;66684;47.568;18.734;2023-01-29T12:26:54;100300.66;;;-1.06;88.26
51759;BME280;66684;47.568;18.734;2023-01-29T12:32:33;100299.59;;;-1.26;90.63
51759;BME280;66684;47.568;18.734;2023-01-29T12:35:11;100293.81;;;-1.25;89.18
51759;BME280;66684;47.568;18.734;2023-01-29T12:37:50;100296.50;;;-1.32;87.38
51759;BME280;66684;47.568;18.734;2023-01-29T12:40:20;100297.38;;;-1.23;89.40
51759;BME280;66684;47.568;18.734;2023-01-29T12:42:55;100289.31;;;-1.01;88.51
51759;BME280;66684;47.568;18.734;2023-01-29T12:45:24;100273.03;;;-0.95;86.57
51759;BME280;66684;47.568;18.734;2023-01-29T12:47:55;100272.59;;;-1.08;87.75
51759;BME280;66684;47.568;18.734;2023-01-29T12:50:27;100275.44;;;-1.14;85.75
51759;BME280;66684;47.568;18.734;2023-01-29T12:55:44;100268.13;;;-1.45;87.04
51759;BME280;66684;47.568;18.734;2023-01-29T12:59:03;100264.69;;;-1.46;88.19
51759;BME280;66684;47.568;18.734;2023-01-29T13:03:48;100256.50;;;-1.34;87.93
51759;BME280;66684;47.568;18.734;2023-01-29T13:06:20;100250.28;;;-1.38;88.23
51759;BME280;66684;47.568;18.734;2023-01-29T13:08:56;100236.53;;;-1.23;87.40
51759;BME280;66684;47.568;18.734;2023-01-29T13:11:44;100235.34;;;-1.35;87.76
51759;BME280;66684;47.568;18.734;2023-01-29T13:14:21;100234.47;;;-1.44;89.37
51759;BME280;66684;47.568;18.734;2023-01-29T13:16:52;100226.72;;;-1.37;89.16
51759;BME280;66684;47.568;18.734;2023-01-29T13:19:28;100227.25;;;-1.14;89.43
51759;BME280;66684;47.568;18.734;2023-01-29T13:21:59;100226.66;;;-1.02;90.03
51759;BME280;66684;47.568;18.734;2023-01-29T13:24:35;100220.22;;;-0.90;90.59
51759;BME280;66684;47.568;18.734;2023-01-29T13:27:03;100221.84;;;-0.91;89.50
51759;BME280;66684;47.568;18.734;2023-01-29T13:29:30;100234.09;;;-0.87;88.58
51759;BME280;66684;47.568;18.734;2023-01-29T13:32:01;100221.31;;;-1.40;90.01
51759;BME280;66684;47.568;18.734;2023-01-29T13:34:42;100232.53;;;-1.38;92.18
51759;BME280;66684;47.568;18.734;2023-01-29T13:37:11;100218.34;;;-1.36;91.04
51759;BME280;66684;47.568;18.734;2023-01-29T13:39:48;100224.59;;;-1.41;91.62
51759;BME280;66684;47.568;18.734;2023-01-29T13:42:23;100228.78;;;-1.33;91.97
51759;BME280;66684;47.568;18.734;2023-01-29T13:44:55;100218.03;;;-1.22;93.51
51759;BME280;66684;47.568;18.734;2023-01-29T13:47:27;100223.66;;;-0.98;89.01
51759;BME280;66684;47.568;18.734;2023-01-29T13:49:58;100216.37;;;-1.04;86.99
51759;BME280;66684;47.568;18.734;2023-01-29T13:52:39;100217.13;;;-1.14;87.58
51759;BME280;66684;47.568;18.734;2023-01-29T13:55:37;100215.91;;;-1.09;87.55
51759;BME280;66684;47.568;18.734;2023-01-29T14:00:59;100211.44;;;-1.02;88.95
51759;BME280;66684;47.568;18.734;2023-01-29T14:06:01;100222.06;;;-1.24;88.52
51759;BME280;66684;47.568;18.734;2023-01-29T14:13:47;100230.25;;;-1.09;88.44
51759;BME280;66684;47.568;18.734;2023-01-29T14:18:56;100235.19;;;-1.28;89.60
51759;BME280;66684;47.568;18.734;2023-01-29T14:21:30;100225.78;;;-1.12;89.75
51759;BME280;66684;47.568;18.734;2023-01-29T14:24:07;100228.47;;;-1.45;91.38
51759;BME280;66684;47.568;18.734;2023-01-29T14:26:42;100238.59;;;-1.45;90.20
51759;BME280;66684;47.568;18.734;2023-01-29T14:34:34;100229.06;;;-1.73;92.26
51759;BME280;66684;47.568;18.734;2023-01-29T14:37:01;100229.94;;;-1.90;94.61
51759;BME280;66684;47.568;18.734;2023-01-29T14:39:39;100237.72;;;-1.80;95.18
51759;BME280;66684;47.568;18.734;2023-01-29T14:42:54;100231.28;;;-1.76;94.09
51759;BME280;66684;47.568;18.734;2023-01-29T14:58:33;100234.56;;;-1.77;95.81
51759;BME280;66684;47.568;18.734;2023-01-29T15:01:04;100230.25;;;-1.87;94.65
51759;BME280;66684;47.568;18.734;2023-01-29T15:03:51;100236.78;;;-1.98;95.84
51759;BME280;66684;47.568;18.734;2023-01-29T15:06:31;100228.44;;;-2.05;96.55
51759;BME280;66684;47.568;18.734;2023-01-29T15:09:09;100229.31;;;-2.13;98.13
51759;BME280;66684;47.568;18.734;2023-01-29T15:11:48;100225.62;;;-2.00;96.81
51759;BME280;66684;47.568;18.734;2023-01-29T15:14:19;100219.34;;;-2.12;97.59
51759;BME280;66684;47.568;18.734;2023-01-29T15:19:40;100217.25;;;-2.07;99.06
51759;BME280;66684;47.568;18.734;2023-01-29T15:22:12;100216.06;;;-2.11;99.68